Time;durP1;ratioP1;P1;durP2;ratioP2;P2;SDS_P1;SDS_P2;PMS_P1;PMS_P2;Temp;Humidity;BMP_temperature;BMP_pressure;BME280_temperature;BME280_humidity;BME280_pressure;Samples;Min_cycle;Max_cycle;Signal;HPM_P1;HPM_P2
2021/05/02 00:00:33;;;;;;;26.33;23.83;;;7.70;99.80;;;;;;4948661;29;20571;-80
2021/05/02 00:03:02;;;;;;;23.63;21.50;;;7.70;99.80;;;;;;4952828;29;20474;-80
2021/05/02 00:05:32;;;;;;;25.50;23.10;;;7.70;99.90;;;;;;4959172;29;20462;-80
2021/05/02 00:08:00;;;;;;;23.90;21.70;;;7.60;99.90;;;;;;4931925;29;20455;-79
2021/05/02 00:10:29;;;;;;;25.40;23.07;;;7.60;99.90;;;;;;4931876;29;20459;-80
2021/05/02 00:12:58;;;;;;;24.80;22.50;;;7.50;99.90;;;;;;4933237;29;20489;-80
2021/05/02 00:15:26;;;;;;;25.27;22.97;;;7.50;99.90;;;;;;4930424;29;20479;-80
2021/05/02 00:17:56;;;;;;;25.47;23.13;;;7.50;99.90;;;;;;4948418;29;20442;-80
2021/05/02 00:20:25;;;;;;;21.93;20.03;;;7.50;99.90;;;;;;4942906;29;20487;-80
2021/05/02 00:22:55;;;;;;;22.80;20.90;;;7.40;99.90;;;;;;4928687;29;20468;-80
2021/05/02 00:25:24;;;;;;;21.70;19.70;;;7.40;99.90;;;;;;4928771;29;20452;-80
2021/05/02 00:27:51;;;;;;;20.60;18.80;;;7.40;99.90;;;;;;4930318;29;20439;-80
2021/05/02 00:30:21;;;;;;;21.67;19.67;;;7.40;99.90;;;;;;4929997;29;20486;-80
2021/05/02 00:32:51;;;;;;;21.10;19.10;;;7.30;99.90;;;;;;4929972;29;20485;-80
2021/05/02 00:35:21;;;;;;;21.52;19.63;;;7.30;99.90;;;;;;4931286;29;20605;-80
2021/05/02 00:37:49;;;;;;;20.00;18.20;;;7.30;99.90;;;;;;4954944;29;20457;-80
2021/05/02 00:40:18;;;;;;;19.87;18.07;;;7.30;99.90;;;;;;4949613;29;20470;-80
2021/05/02 00:42:49;;;;;;;19.10;17.20;;;7.30;99.90;;;;;;4952765;29;20466;-80
2021/05/02 00:45:25;;;;;;;18.88;17.10;;;7.20;99.90;;;;;;4957285;29;20461;-80
2021/05/02 00:47:57;;;;;;;16.70;15.20;;;7.30;99.90;;;;;;4948356;29;20194;-80
2021/05/02 00:50:33;;;;;;;19.20;17.40;;;7.20;99.90;;;;;;4944391;29;20500;-80
2021/05/02 00:53:30;;;;;;;19.37;17.57;;;7.20;99.90;;;;;;4930190;29;20473;-80
2021/05/02 00:55:58;;;;;;;17.97;16.37;;;7.20;99.90;;;;;;4926960;29;20527;-80
2021/05/02 00:58:35;;;;;;;16.80;15.30;;;7.10;99.90;;;;;;4928684;29;20459;-80
2021/05/02 01:01:03;;;;;;;17.50;15.80;;;7.10;99.90;;;;;;4929052;29;20454;-80
2021/05/02 01:03:33;;;;;;;17.60;15.90;;;7.10;99.90;;;;;;4928536;29;20479;-80
2021/05/02 01:06:08;;;;;;;16.70;15.30;;;7.10;99.90;;;;;;4935667;29;20509;-80
2021/05/02 01:08:37;;;;;;;17.90;16.10;;;7.00;99.90;;;;;;4948313;29;20474;-79
2021/05/02 01:11:05;;;;;;;16.80;15.20;;;7.00;99.90;;;;;;4950189;29;20468;-79
2021/05/02 01:13:37;;;;;;;18.90;17.20;;;7.00;99.90;;;;;;4958436;29;20477;-79
2021/05/02 01:16:07;;;;;;;18.63;16.90;;;7.00;99.90;;;;;;4955787;29;20467;-79
2021/05/02 01:18:37;;;;;;;16.00;14.60;;;6.90;99.90;;;;;;4941007;29;20426;-79
2021/05/02 01:21:06;;;;;;;15.70;14.40;;;6.90;99.90;;;;;;4940229;29;20454;-79
2021/05/02 01:23:35;;;;;;;16.60;15.10;;;6.90;99.90;;;;;;4946810;29;20477;-79
2021/05/02 01:26:02;;;;;;;17.47;15.87;;;6.90;99.90;;;;;;4948115;29;20450;-79
2021/05/02 01:28:30;;;;;;;18.47;16.77;;;6.80;99.90;;;;;;4945786;29;20473;-79
2021/05/02 01:30:58;;;;;;;17.33;15.73;;;6.80;99.90;;;;;;4945807;29;20459;-79
2021/05/02 01:33:26;;;;;;;16.77;15.23;;;6.80;99.90;;;;;;4946601;29;20477;-79
2021/05/02 01:35:55;;;;;;;16.10;14.70;;;6.80;99.90;;;;;;4944416;29;20457;-79
2021/05/02 01:38:23;;;;;;;19.83;18.03;;;6.70;99.90;;;;;;4939967;29;20528;-79
2021/05/02 01:40:53;;;;;;;18.43;16.73;;;6.70;99.90;;;;;;4947697;29;20848;-79
2021/05/02 01:43:21;;;;;;;16.40;14.90;;;6.70;99.90;;;;;;4947551;29;20466;-79
2021/05/02 01:45:48;;;;;;;17.17;15.67;;;6.70;99.90;;;;;;4947462;29;20454;-79
2021/05/02 01:48:18;;;;;;;17.10;15.60;;;6.70;99.90;;;;;;4945766;29;20449;-79
2021/05/02 01:50:49;;;;;;;16.27;14.87;;;6.70;99.90;;;;;;4945602;29;20479;-79
2021/05/02 01:53:16;;;;;;;16.30;14.80;;;6.60;99.90;;;;;;4928619;29;20554;-80
2021/05/02 01:55:45;;;;;;;16.53;15.03;;;6.60;99.90;;;;;;4926176;29;20454;-80
2021/05/02 01:58:14;;;;;;;17.10;15.60;;;6.60;99.90;;;;;;4926647;29;20459;-80
2021/05/02 02:00:45;;;;;;;18.07;16.43;;;6.60;99.90;;;;;;4927849;29;20470;-80
2021/05/02 02:03:14;;;;;;;16.30;14.90;;;6.60;99.90;;;;;;4928871;29;20979;-80
2021/05/02 02:05:41;;;;;;;16.87;15.37;;;6.50;99.90;;;;;;4926298;29;20482;-80
2021/05/02 02:08:09;;;;;;;17.73;16.13;;;6.50;99.90;;;;;;4926301;29;20461;-80
2021/05/02 02:10:37;;;;;;;18.17;16.57;;;6.40;99.90;;;;;;4937406;29;20454;-80
2021/05/02 02:13:08;;;;;;;20.47;18.67;;;6.40;99.90;;;;;;4944101;29;20535;-80
2021/05/02 02:15:38;;;;;;;19.50;17.70;;;6.40;99.90;;;;;;4945357;29;20461;-80
2021/05/02 02:18:05;;;;;;;19.20;17.50;;;6.40;99.90;;;;;;4944003;29;20458;-79
2021/05/02 02:20:40;;;;;;;20.75;18.85;;;6.30;99.90;;;;;;4944347;29;20492;-79
2021/05/02 02:23:16;;;;;;;20.30;18.27;;;6.40;99.90;;;;;;4926255;29;20277;-79
2021/05/02 02:25:44;;;;;;;20.10;18.20;;;6.30;99.90;;;;;;4927631;29;20434;-79
2021/05/02 02:28:14;;;;;;;19.57;17.87;;;6.30;99.90;;;;;;4925097;29;20554;-79
2021/05/02 02:30:46;;;;;;;18.57;16.83;;;6.20;99.90;;;;;;4937731;29;20497;-79
2021/05/02 02:33:14;;;;;;;18.63;17.00;;;6.20;99.90;;;;;;4946677;29;20533;-79
2021/05/02 02:35:50;;;;;;;19.47;17.70;;;6.20;99.90;;;;;;4945475;29;20484;-79
2021/05/02 02:38:20;;;;;;;19.27;17.50;;;6.20;99.90;;;;;;4943813;29;20508;-79
2021/05/02 02:40:49;;;;;;;20.50;18.40;;;6.10;99.90;;;;;;4943921;29;20475;-79
2021/05/02 02:43:22;;;;;;;20.57;18.67;;;6.10;99.90;;;;;;4945691;29;20872;-79
2021/05/02 02:45:53;;;;;;;20.20;18.27;;;6.10;99.90;;;;;;4945154;29;20956;-79
2021/05/02 02:48:24;;;;;;;20.90;19.00;;;6.00;99.90;;;;;;4925818;29;21037;-79
2021/05/02 02:50:52;;;;;;;20.37;18.47;;;6.00;99.90;;;;;;4925324;29;20963;-79
2021/05/02 02:53:21;;;;;;;22.27;20.17;;;6.00;99.90;;;;;;4925652;29;20474;-79
2021/05/02 02:56:01;;;;;;;20.67;18.63;;;6.00;99.90;;;;;;4926641;29;20450;-79
2021/05/02 02:58:34;;;;;;;20.00;18.03;;;5.90;99.90;;;;;;4925059;29;20450;-79
2021/05/02 03:01:04;;;;;;;20.53;18.60;;;5.90;99.90;;;;;;4925667;29;20439;-79
2021/05/02 03:03:33;;;;;;;19.70;17.97;;;5.90;99.90;;;;;;4926632;29;21033;-79
2021/05/02 03:06:01;;;;;;;20.30;18.50;;;5.90;99.90;;;;;;4925710;29;20457;-79
2021/05/02 03:08:30;;;;;;;20.13;18.00;;;5.90;99.90;;;;;;4925539;29;20466;-79
2021/05/02 03:10:58;;;;;;;19.67;17.97;;;5.90;99.90;;;;;;4940685;29;20451;-79
2021/05/02 03:13:26;;;;;;;17.90;16.20;;;5.80;99.90;;;;;;4924764;29;20470;-79
2021/05/02 03:15:53;;;;;;;19.60;17.90;;;5.90;99.90;;;;;;4949562;29;20472;-79
2021/05/02 03:18:25;;;;;;;19.10;17.37;;;5.80;99.90;;;;;;4964088;28;20476;-79
2021/05/02 03:20:58;;;;;;;19.23;17.20;;;5.90;99.90;;;;;;4965507;28;20492;-79
2021/05/02 03:23:31;;;;;;;18.40;16.70;;;5.80;99.90;;;;;;4964145;29;20476;-79
2021/05/02 03:26:03;;;;;;;19.47;17.60;;;5.80;99.90;;;;;;4964756;28;20907;-79
2021/05/02 03:28:33;;;;;;;20.13;18.33;;;5.80;99.90;;;;;;4965420;28;20534;-79
2021/05/02 03:31:03;;;;;;;21.40;19.43;;;5.80;99.90;;;;;;4950581;28;20532;-80
2021/05/02 03:33:35;;;;;;;18.80;17.10;;;5.80;99.90;;;;;;4943387;29;20473;-80
2021/05/02 03:36:09;;;;;;;20.13;18.23;;;5.80;99.90;;;;;;4944532;29;20449;-80
2021/05/02 03:38:53;;;;;;;20.77;18.80;;;5.80;99.90;;;;;;4945729;29;20488;-80
2021/05/02 03:41:36;;;;;;;20.80;18.80;;;5.90;99.90;;;;;;4948744;29;20463;-80
2021/05/02 03:44:09;;;;;;;20.33;18.33;;;5.80;99.90;;;;;;4933705;29;20490;-80
2021/05/02 03:46:36;;;;;;;21.77;19.77;;;5.90;99.90;;;;;;4928998;29;20445;-80
2021/05/02 03:49:06;;;;;;;22.13;20.03;;;5.90;99.90;;;;;;4928505;29;20534;-80
2021/05/02 03:51:35;;;;;;;21.70;19.60;;;5.90;99.90;;;;;;4928498;29;20486;-80
2021/05/02 03:54:03;;;;;;;22.73;20.73;;;5.90;99.90;;;;;;4944319;29;20539;-79
2021/05/02 03:56:32;;;;;;;21.33;19.20;;;5.90;99.90;;;;;;4947876;29;20539;-79
2021/05/02 03:59:12;;;;;;;22.47;20.00;;;5.90;99.90;;;;;;4949200;29;20449;-79
2021/05/02 04:01:48;;;;;;;22.03;19.97;;;6.00;99.90;;;;;;4950023;29;20458;-79
2021/05/02 04:04:18;;;;;;;21.57;19.53;;;6.00;99.90;;;;;;4947559;29;20457;-79
2021/05/02 04:06:45;;;;;;;23.30;21.00;;;6.00;99.90;;;;;;4948182;29;20439;-79
2021/05/02 04:09:14;;;;;;;21.40;19.40;;;6.00;99.90;;;;;;4947543;29;20500;-79
2021/05/02 04:11:42;;;;;;;20.70;18.67;;;6.00;99.90;;;;;;4946930;29;20519;-79
2021/05/02 04:14:11;;;;;;;20.80;19.00;;;6.10;99.90;;;;;;4946526;29;20480;-79
2021/05/02 04:16:39;;;;;;;20.13;18.20;;;6.10;99.90;;;;;;4947166;29;20457;-79
2021/05/02 04:19:08;;;;;;;21.07;18.77;;;6.10;99.90;;;;;;4946359;29;20481;-79
2021/05/02 04:21:38;;;;;;;20.30;18.10;;;6.20;99.90;;;;;;4938447;29;20882;-79
2021/05/02 04:24:06;;;;;;;20.83;18.80;;;6.20;99.90;;;;;;4928912;29;20466;-79
2021/05/02 04:26:33;;;;;;;20.40;18.40;;;6.20;99.90;;;;;;4927542;29;20456;-79
2021/05/02 04:29:01;;;;;;;20.60;18.63;;;6.30;99.90;;;;;;4928475;29;20541;-79
2021/05/02 04:31:29;;;;;;;20.70;18.80;;;6.30;99.90;;;;;;4949252;29;20536;-79
2021/05/02 04:33:57;;;;;;;20.35;18.35;;;6.30;99.90;;;;;;4965044;28;20463;-79
2021/05/02 04:36:24;;;;;;;18.80;16.90;;;6.40;99.90;;;;;;4966395;28;20208;-79
2021/05/02 04:38:52;;;;;;;21.00;19.00;;;6.40;99.90;;;;;;4965419;28;20453;-80
2021/05/02 04:41:20;;;;;;;21.00;18.80;;;6.50;99.90;;;;;;4965572;28;20495;-80
2021/05/02 04:43:47;;;;;;;22.10;20.00;;;6.50;99.90;;;;;;4966937;28;20460;-80
2021/05/02 04:46:14;;;;;;;21.53;19.43;;;6.50;99.90;;;;;;4958807;28;20468;-80
2021/05/02 04:48:42;;;;;;;20.50;18.30;;;6.60;99.90;;;;;;4948565;29;20823;-80
2021/05/02 04:51:12;;;;;;;21.50;19.30;;;6.60;99.90;;;;;;4958959;29;20472;-80
2021/05/02 04:53:40;;;;;;;20.87;18.43;;;6.60;99.90;;;;;;4948398;29;20477;-80
2021/05/02 04:56:09;;;;;;;20.40;18.30;;;6.60;99.90;;;;;;4959368;29;20893;-80
2021/05/02 04:58:36;;;;;;;19.17;17.27;;;6.70;99.90;;;;;;4964542;28;20451;-80
2021/05/02 05:01:04;;;;;;;20.03;18.10;;;6.70;99.90;;;;;;4964045;29;20527;-80
2021/05/02 05:03:32;;;;;;;19.73;17.83;;;6.80;99.90;;;;;;4954290;29;20562;-80
2021/05/02 05:05:59;;;;;;;20.00;18.10;;;6.80;99.90;;;;;;4946902;29;20457;-80
2021/05/02 05:08:27;;;;;;;19.90;17.90;;;6.80;99.90;;;;;;4945593;29;20418;-80
2021/05/02 05:10:54;;;;;;;19.57;17.67;;;6.80;99.90;;;;;;4943205;29;20476;-80
2021/05/02 05:13:23;;;;;;;19.87;17.37;;;6.90;99.90;;;;;;4942700;29;20573;-80
2021/05/02 05:15:50;;;;;;;18.07;16.30;;;6.90;99.90;;;;;;4944382;29;20520;-80
2021/05/02 05:18:17;;;;;;;18.07;16.33;;;6.90;99.90;;;;;;4944607;29;20521;-80
2021/05/02 05:20:45;;;;;;;18.27;16.43;;;6.90;99.90;;;;;;4945065;29;20477;-80
2021/05/02 05:23:12;;;;;;;20.63;18.53;;;7.00;99.90;;;;;;4936346;29;20538;-80
2021/05/02 05:25:39;;;;;;;21.27;19.17;;;7.00;99.90;;;;;;4936589;29;20489;-80
2021/05/02 05:28:08;;;;;;;23.07;20.67;;;7.00;99.90;;;;;;4947739;29;20561;-80
2021/05/02 05:30:36;;;;;;;21.83;19.63;;;7.10;99.90;;;;;;4946230;29;20454;-80
2021/05/02 05:33:04;;;;;;;22.10;20.00;;;7.10;99.90;;;;;;4947246;29;20529;-80
2021/05/02 05:35:32;;;;;;;22.63;20.23;;;7.10;99.90;;;;;;4948944;29;20418;-80
2021/05/02 05:38:00;;;;;;;21.57;19.43;;;7.20;99.90;;;;;;4935870;29;20463;-80
2021/05/02 05:40:28;;;;;;;22.57;20.40;;;7.30;99.90;;;;;;4931589;29;20451;-80
2021/05/02 05:42:56;;;;;;;22.30;20.10;;;7.40;99.90;;;;;;4947553;29;20538;-80
2021/05/02 05:45:25;;;;;;;22.70;20.40;;;7.40;99.90;;;;;;4955367;29;20449;-80
2021/05/02 05:47:53;;;;;;;21.87;19.53;;;7.50;99.90;;;;;;4955015;29;21028;-80
2021/05/02 05:50:22;;;;;;;20.00;18.10;;;7.70;99.90;;;;;;4956302;29;20454;-80
2021/05/02 05:52:51;;;;;;;19.67;17.67;;;7.80;99.90;;;;;;4956048;29;20486;-80
2021/05/02 05:55:19;;;;;;;21.17;18.90;;;7.90;99.90;;;;;;4949226;29;20471;-80
2021/05/02 05:57:47;;;;;;;22.07;19.77;;;8.10;99.90;;;;;;4952103;29;20469;-80
2021/05/02 06:00:16;;;;;;;19.77;17.67;;;8.30;99.90;;;;;;4954509;29;20484;-81
2021/05/02 06:02:43;;;;;;;19.67;17.60;;;8.50;99.90;;;;;;4948059;29;20467;-80
2021/05/02 06:05:13;;;;;;;18.00;16.30;;;8.60;99.90;;;;;;4947549;29;20477;-80
2021/05/02 06:07:40;;;;;;;18.07;16.27;;;8.70;99.90;;;;;;4930327;29;20992;-80
2021/05/02 06:10:08;;;;;;;18.40;16.50;;;8.80;99.90;;;;;;4930495;29;20433;-80
2021/05/02 06:12:35;;;;;;;19.60;17.50;;;8.90;99.90;;;;;;4938974;29;20485;-80
2021/05/02 06:15:04;;;;;;;17.87;15.97;;;9.00;99.90;;;;;;4946430;29;20454;-80
2021/05/02 06:17:31;;;;;;;20.30;18.17;;;9.00;99.90;;;;;;4930819;29;20527;-80
2021/05/02 06:19:58;;;;;;;20.20;18.00;;;9.00;99.90;;;;;;4928997;29;20223;-80
2021/05/02 06:22:26;;;;;;;20.27;18.27;;;9.10;99.90;;;;;;4930585;29;20483;-80
2021/05/02 06:24:54;;;;;;;19.73;17.63;;;9.30;99.90;;;;;;4932627;29;20455;-80
2021/05/02 06:27:21;;;;;;;20.75;18.55;;;9.40;99.90;;;;;;4939784;29;20477;-80
2021/05/02 06:29:48;;;;;;;20.23;16.87;;;9.50;99.90;;;;;;4948579;29;20184;-80
2021/05/02 06:32:15;;;;;;;18.63;16.73;;;9.80;99.90;;;;;;4944806;29;20562;-80
2021/05/02 06:34:42;;;;;;;20.43;16.90;;;9.90;99.90;;;;;;4941146;29;20539;-80
2021/05/02 06:37:10;;;;;;;17.50;15.67;;;10.10;99.90;;;;;;4932347;29;20453;-78
2021/05/02 06:39:40;;;;;;;18.53;16.20;;;10.30;99.90;;;;;;4931964;29;20468;-78
2021/05/02 06:42:07;;;;;;;18.10;16.30;;;10.40;99.90;;;;;;4933415;29;20477;-78
2021/05/02 06:44:34;;;;;;;19.23;17.20;;;10.60;99.90;;;;;;4933098;29;20460;-78
2021/05/02 06:47:02;;;;;;;15.50;13.97;;;10.80;99.90;;;;;;4930653;29;20436;-78
2021/05/02 06:49:29;;;;;;;16.20;14.50;;;11.00;99.90;;;;;;4930988;29;20459;-78
2021/05/02 06:51:57;;;;;;;17.37;15.47;;;11.20;99.90;;;;;;4936826;29;20476;-80
2021/05/02 06:54:26;;;;;;;15.10;13.50;;;11.30;99.90;;;;;;4938497;29;20923;-80
2021/05/02 06:56:55;;;;;;;15.60;14.10;;;11.30;99.90;;;;;;4943416;29;20817;-80
2021/05/02 06:59:23;;;;;;;17.60;15.23;;;11.20;99.90;;;;;;4949923;29;20440;-80
2021/05/02 07:01:50;;;;;;;20.10;15.50;;;11.10;99.90;;;;;;4939192;29;20495;-80
2021/05/02 07:04:17;;;;;;;16.13;14.60;;;11.00;99.90;;;;;;4939622;29;20449;-80
2021/05/02 07:06:44;;;;;;;15.53;14.03;;;10.90;99.90;;;;;;4940326;29;20476;-80
2021/05/02 07:09:11;;;;;;;14.17;12.77;;;10.80;99.90;;;;;;4931218;28;20455;-81
2021/05/02 07:11:38;;;;;;;13.47;12.10;;;10.80;99.90;;;;;;4943487;29;20523;-81
2021/05/02 07:14:08;;;;;;;12.63;11.60;;;10.80;99.90;;;;;;4944535;29;20491;-80
2021/05/02 07:16:35;;;;;;;12.80;11.60;;;10.80;99.90;;;;;;4932664;29;20452;-80
2021/05/02 07:19:04;;;;;;;11.80;10.43;;;10.80;99.90;;;;;;4926127;29;20521;-80
2021/05/02 07:21:32;;;;;;;11.60;10.40;;;10.70;99.90;;;;;;4928745;29;20487;-80
2021/05/02 07:24:00;;;;;;;13.50;10.07;;;10.90;99.90;;;;;;4931074;29;20503;-80
2021/05/02 07:26:31;;;;;;;12.07;10.83;;;11.20;99.90;;;;;;4927039;29;20505;-80
2021/05/02 07:29:00;;;;;;;12.40;11.20;;;11.30;99.90;;;;;;4931094;29;20462;-80
2021/05/02 07:31:28;;;;;;;11.97;10.80;;;11.40;99.90;;;;;;4926286;29;20480;-81
2021/05/02 07:33:55;;;;;;;9.93;9.03;;;11.40;99.90;;;;;;4926772;29;20508;-80
2021/05/02 07:36:23;;;;;;;10.50;9.40;;;11.40;99.90;;;;;;4924762;29;20456;-80
2021/05/02 07:39:00;;;;;;;9.33;8.50;;;11.40;99.90;;;;;;4926486;29;20456;-82
2021/05/02 07:41:27;;;;;;;9.03;8.23;;;11.40;99.90;;;;;;4946345;29;20566;-81
2021/05/02 07:43:55;;;;;;;9.73;8.83;;;11.50;99.90;;;;;;4950864;29;21032;-81
2021/05/02 07:46:22;;;;;;;10.70;9.70;;;11.50;99.90;;;;;;4950527;29;20551;-80
2021/05/02 07:48:51;;;;;;;11.10;10.10;;;11.50;99.90;;;;;;4948118;29;20953;-81
2021/05/02 07:51:19;;;;;;;12.13;11.03;;;11.40;99.90;;;;;;4942264;29;20847;-80
2021/05/02 07:53:47;;;;;;;10.70;9.80;;;11.40;99.90;;;;;;4942146;29;20873;-80
2021/05/02 07:56:14;;;;;;;11.20;10.00;;;11.50;99.90;;;;;;4929972;29;20973;-80
2021/05/02 07:58:41;;;;;;;10.60;9.50;;;11.50;99.90;;;;;;4941740;29;20443;-80
2021/05/02 08:01:08;;;;;;;10.93;9.57;;;11.40;99.90;;;;;;4940723;29;20468;-81
2021/05/02 08:03:36;;;;;;;11.67;10.47;;;11.40;99.90;;;;;;4940621;29;20815;-81
2021/05/02 08:06:21;;;;;;;10.23;8.73;;;11.40;99.90;;;;;;4941449;29;20520;-80
2021/05/02 08:08:48;;;;;;;10.97;9.97;;;11.50;99.90;;;;;;4927660;29;20464;-80
2021/05/02 08:11:16;;;;;;;9.57;8.67;;;11.50;99.90;;;;;;4938886;29;20466;-80
2021/05/02 08:13:43;;;;;;;9.87;8.87;;;11.40;99.90;;;;;;4940304;29;21052;-79
2021/05/02 08:16:10;;;;;;;10.90;9.90;;;11.40;99.90;;;;;;4941083;29;21005;-79
2021/05/02 08:18:38;;;;;;;13.63;11.70;;;11.30;99.90;;;;;;4941138;29;20455;-79
2021/05/02 08:21:07;;;;;;;9.83;8.90;;;11.20;99.90;;;;;;4939586;29;20567;-79
2021/05/02 08:23:35;;;;;;;11.90;10.30;;;11.10;99.90;;;;;;4923235;29;20465;-79
2021/05/02 08:26:03;;;;;;;9.00;8.20;;;11.00;99.90;;;;;;4922008;29;20476;-80
2021/05/02 08:28:38;;;;;;;8.20;7.47;;;10.90;99.90;;;;;;4922438;29;20452;-80
2021/05/02 08:31:10;;;;;;;8.43;7.73;;;10.90;99.90;;;;;;4923398;29;20472;-80
2021/05/02 08:33:38;;;;;;;8.60;7.87;;;10.80;99.90;;;;;;4923664;29;20469;-80
2021/05/02 08:36:06;;;;;;;7.43;6.73;;;10.80;99.90;;;;;;4934633;29;20460;-81
2021/05/02 08:38:34;;;;;;;7.60;6.90;;;10.80;99.90;;;;;;4923377;29;20462;-81
2021/05/02 08:41:03;;;;;;;7.73;6.90;;;10.70;99.90;;;;;;4935539;29;20571;-81
2021/05/02 08:43:31;;;;;;;7.87;7.17;;;10.70;99.90;;;;;;4941105;29;20472;-80
2021/05/02 08:45:59;;;;;;;7.50;6.50;;;10.70;99.90;;;;;;4941864;29;21052;-80
2021/05/02 08:48:27;;;;;;;9.03;8.23;;;10.70;99.90;;;;;;4944734;29;20431;-80
2021/05/02 08:50:56;;;;;;;7.53;6.93;;;10.60;99.90;;;;;;4945475;29;20879;-80
2021/05/02 08:53:24;;;;;;;9.10;7.53;;;10.60;99.90;;;;;;4948392;29;20492;-80
2021/05/02 08:55:54;;;;;;;7.63;6.90;;;10.50;99.90;;;;;;4941907;29;20969;-80
2021/05/02 08:58:23;;;;;;;8.17;7.43;;;10.60;99.90;;;;;;4943699;29;20437;-80
2021/05/02 09:00:51;;;;;;;8.30;7.50;;;10.60;99.90;;;;;;4943283;29;20475;-80
2021/05/02 09:03:19;;;;;;;7.30;6.60;;;10.60;99.90;;;;;;4945731;29;20464;-80
2021/05/02 09:05:48;;;;;;;9.33;6.50;;;10.60;99.90;;;;;;4949710;29;20451;-80
2021/05/02 09:08:30;;;;;;;7.60;6.63;;;10.70;99.90;;;;;;4942763;29;20452;-80
2021/05/02 09:10:59;;;;;;;9.00;6.70;;;10.80;99.90;;;;;;4944457;29;20448;-80
2021/05/02 09:13:27;;;;;;;8.10;7.40;;;10.80;99.90;;;;;;4942659;29;20479;-80
2021/05/02 09:15:58;;;;;;;6.83;6.23;;;10.90;99.90;;;;;;4938139;29;20572;-80
2021/05/02 09:18:35;;;;;;;6.97;6.30;;;10.90;99.90;;;;;;4924550;29;20457;-80
2021/05/02 09:21:04;;;;;;;6.97;6.37;;;10.90;99.90;;;;;;4925294;29;20618;-80
2021/05/02 09:23:39;;;;;;;8.90;5.57;;;11.00;99.90;;;;;;4925163;29;20477;-80
2021/05/02 09:26:09;;;;;;;8.17;6.97;;;11.00;99.90;;;;;;4940768;29;20566;-80
2021/05/02 09:28:45;;;;;;;7.50;6.77;;;11.00;99.90;;;;;;4944161;29;20448;-80
2021/05/02 09:31:15;;;;;;;6.30;5.40;;;11.00;99.90;;;;;;4944373;29;20507;-80
2021/05/02 09:33:42;;;;;;;7.70;6.50;;;11.00;99.90;;;;;;4943560;29;20828;-80
2021/05/02 09:36:11;;;;;;;7.40;6.50;;;11.00;99.90;;;;;;4924454;29;20993;-80
2021/05/02 09:38:39;;;;;;;6.17;5.57;;;11.00;99.90;;;;;;4922282;29;21055;-80
2021/05/02 09:41:08;;;;;;;9.10;7.90;;;11.00;99.90;;;;;;4934012;29;20503;-80
2021/05/02 09:43:42;;;;;;;7.65;6.85;;;11.00;99.90;;;;;;4939492;29;20941;-80
2021/05/02 09:46:25;;;;;;;9.53;5.50;;;11.10;99.90;;;;;;4938758;29;20263;-80
2021/05/02 09:49:01;;;;;;;5.90;5.30;;;11.10;99.90;;;;;;4919817;29;20472;-80
2021/05/02 09:51:30;;;;;;;5.80;5.30;;;11.10;99.90;;;;;;4920424;29;20859;-80
2021/05/02 09:54:19;;;;;;;5.80;5.30;;;11.10;99.90;;;;;;4920188;29;20505;-80
2021/05/02 09:56:49;;;;;;;5.37;4.87;;;11.10;99.80;;;;;;4917779;29;20496;-80
2021/05/02 09:59:35;;;;;;;5.43;4.93;;;11.10;99.90;;;;;;4919496;29;20471;-80
2021/05/02 10:02:23;;;;;;;6.10;4.63;;;11.20;99.90;;;;;;4919518;29;20477;-79
2021/05/02 10:04:55;;;;;;;4.77;4.37;;;11.30;99.90;;;;;;4920972;29;20457;-79
2021/05/02 10:07:24;;;;;;;5.73;5.20;;;11.40;99.90;;;;;;4923002;29;20472;-80
2021/05/02 10:09:52;;;;;;;7.17;5.00;;;11.60;99.90;;;;;;4934940;29;20474;-81
2021/05/02 10:12:21;;;;;;;5.87;5.27;;;11.70;99.80;;;;;;4943602;29;20579;-80
2021/05/02 10:14:50;;;;;;;6.20;4.90;;;11.80;99.60;;;;;;4926210;29;20453;-80
2021/05/02 10:17:18;;;;;;;5.47;4.97;;;11.90;99.40;;;;;;4926750;29;20463;-80
2021/05/02 10:19:46;;;;;;;5.47;4.97;;;11.90;99.30;;;;;;4925472;29;20527;-80
2021/05/02 10:22:13;;;;;;;12.13;5.03;;;11.90;99.10;;;;;;4923558;29;20495;-80
2021/05/02 10:24:40;;;;;;;4.90;4.40;;;11.90;99.10;;;;;;4922310;29;20838;-83
2021/05/02 10:27:10;;;;;;;4.70;4.17;;;11.90;98.90;;;;;;4924440;29;20875;-80
2021/05/02 10:29:41;;;;;;;4.70;4.20;;;12.00;98.90;;;;;;4924030;29;20535;-80
2021/05/02 10:32:11;;;;;;;5.27;4.77;;;12.20;99.20;;;;;;4932990;29;20483;-80
2021/05/02 10:34:39;;;;;;;5.70;4.60;;;12.30;98.80;;;;;;4944185;29;20439;-80
2021/05/02 10:37:27;;;;;;;5.67;5.07;;;12.40;98.40;;;;;;4942114;29;20834;-80
2021/05/02 10:39:55;;;;;;;7.53;4.63;;;12.50;98.00;;;;;;4922617;29;20440;-80
2021/05/02 10:42:39;;;;;;;5.60;4.70;;;12.50;97.90;;;;;;4922232;29;20516;-80
2021/05/02 10:45:37;;;;;;;6.67;4.80;;;12.50;97.80;;;;;;4921950;29;20459;-80
2021/05/02 10:48:10;;;;;;;5.00;4.13;;;12.50;97.70;;;;;;4925168;29;20468;-81
2021/05/02 10:50:42;;;;;;;5.43;4.93;;;12.50;97.80;;;;;;4925547;29;20965;-81
2021/05/02 10:53:13;;;;;;;7.23;4.77;;;12.50;97.90;;;;;;4924757;29;20497;-81
2021/05/02 10:55:51;;;;;;;6.70;4.60;;;12.50;97.90;;;;;;4931049;29;20539;-80
2021/05/02 10:58:19;;;;;;;6.77;5.20;;;12.50;98.00;;;;;;4922147;29;20879;-81
2021/05/02 11:00:56;;;;;;;11.32;6.03;;;12.40;98.00;;;;;;4922583;29;20451;-80
2021/05/02 11:04:00;;;;;;;5.23;4.53;;;12.40;98.00;;;;;;4923291;29;20263;-81
2021/05/02 11:07:01;;;;;;;4.90;4.47;;;12.40;98.00;;;;;;4922863;29;20521;-81
2021/05/02 11:10:01;;;;;;;8.43;5.70;;;12.40;98.00;;;;;;4923397;29;20488;-81
2021/05/02 11:12:30;;;;;;;4.75;4.35;;;12.30;98.00;;;;;;4915896;29;20558;-81
2021/05/02 11:14:59;;;;;;;4.00;3.60;;;12.40;98.00;;;;;;4937389;29;20212;-80
2021/05/02 11:17:31;;;;;;;7.10;4.30;;;12.30;97.90;;;;;;4940324;29;20498;-79
2021/05/02 11:20:00;;;;;;;4.73;3.00;;;12.30;98.00;;;;;;4940835;29;20455;-80
2021/05/02 11:22:29;;;;;;;4.20;3.37;;;12.30;97.90;;;;;;4933807;29;20480;-80
2021/05/02 11:24:58;;;;;;;6.83;3.37;;;12.30;97.70;;;;;;4926699;29;20451;-80
2021/05/02 11:28:03;;;;;;;3.50;3.20;;;12.20;97.50;;;;;;4922821;29;20480;-80
2021/05/02 11:30:32;;;;;;;6.53;3.13;;;12.10;97.50;;;;;;4939933;29;20488;-80
2021/05/02 11:33:01;;;;;;;4.20;2.80;;;12.10;97.60;;;;;;4942958;29;20502;-80
2021/05/02 11:35:57;;;;;;;3.10;2.57;;;12.10;97.60;;;;;;4941295;29;20459;-80
2021/05/02 11:38:39;;;;;;;4.13;3.03;;;12.10;97.70;;;;;;4941177;29;20806;-80
2021/05/02 11:41:09;;;;;;;3.60;2.80;;;12.10;98.10;;;;;;4943681;29;20512;-80
2021/05/02 11:43:39;;;;;;;4.70;3.60;;;12.00;97.90;;;;;;4941335;29;20499;-80
2021/05/02 11:46:16;;;;;;;4.80;3.57;;;12.00;98.00;;;;;;4942511;29;20450;-80
2021/05/02 11:48:46;;;;;;;4.43;3.70;;;12.00;98.20;;;;;;4941673;29;20459;-80
2021/05/02 11:51:23;;;;;;;5.17;3.70;;;12.00;98.40;;;;;;4942481;29;20559;-80
2021/05/02 11:53:56;;;;;;;4.50;3.47;;;12.00;98.40;;;;;;4940843;29;21075;-79
2021/05/02 11:56:25;;;;;;;4.70;3.07;;;12.00;98.50;;;;;;4941571;29;20497;-80
2021/05/02 11:58:54;;;;;;;3.70;3.40;;;11.90;98.60;;;;;;4946484;29;20607;-79
2021/05/02 12:01:27;;;;;;;3.30;3.00;;;11.90;98.60;;;;;;4943080;29;20485;-79
2021/05/02 12:04:03;;;;;;;3.00;2.70;;;11.80;98.70;;;;;;4940220;29;20782;-79
2021/05/02 12:06:32;;;;;;;3.23;2.87;;;11.80;98.80;;;;;;4930855;29;20479;-80
2021/05/02 12:09:02;;;;;;;2.87;2.67;;;11.70;98.70;;;;;;4939881;29;20455;-79
2021/05/02 12:11:30;;;;;;;4.03;3.00;;;11.60;98.70;;;;;;4922716;29;20528;-79
2021/05/02 12:13:58;;;;;;;2.93;2.27;;;11.50;98.60;;;;;;4920762;29;20499;-79
2021/05/02 12:16:27;;;;;;;5.17;2.70;;;11.40;98.60;;;;;;4927949;29;20555;-79
2021/05/02 12:19:01;;;;;;;3.67;3.00;;;11.30;98.70;;;;;;4919062;29;21030;-79
2021/05/02 12:21:31;;;;;;;3.20;2.50;;;11.20;98.80;;;;;;4918444;29;20560;-79
2021/05/02 12:24:10;;;;;;;2.80;2.40;;;11.10;98.90;;;;;;4923440;29;20452;-79
2021/05/02 12:26:42;;;;;;;3.60;2.85;;;10.90;99.00;;;;;;4922961;29;20810;-79
2021/05/02 12:29:12;;;;;;;3.07;2.77;;;10.80;99.40;;;;;;4929330;29;20230;-79
2021/05/02 12:31:40;;;;;;;2.63;2.43;;;10.70;99.30;;;;;;4938854;29;20461;-79
2021/05/02 12:34:10;;;;;;;3.17;2.87;;;10.70;99.50;;;;;;4923576;29;20504;-80
2021/05/02 12:36:38;;;;;;;3.40;3.10;;;10.60;99.70;;;;;;4924066;29;20539;-80
2021/05/02 12:39:09;;;;;;;3.97;3.60;;;10.60;99.80;;;;;;4922970;29;20481;-80
2021/05/02 12:41:38;;;;;;;3.43;3.13;;;10.60;99.90;;;;;;4922118;29;20464;-80
2021/05/02 12:44:18;;;;;;;3.73;3.40;;;10.60;99.90;;;;;;4922842;29;20477;-80
2021/05/02 12:46:47;;;;;;;4.83;3.87;;;10.60;99.90;;;;;;4922988;29;20982;-80
2021/05/02 12:49:17;;;;;;;4.50;3.80;;;10.50;99.90;;;;;;4923481;29;20862;-79
2021/05/02 12:51:48;;;;;;;6.70;4.00;;;10.30;99.90;;;;;;4927708;29;20449;-79
2021/05/02 12:54:19;;;;;;;4.90;3.10;;;10.20;99.90;;;;;;4918486;29;20890;-78
2021/05/02 12:57:03;;;;;;;4.60;3.40;;;10.00;99.90;;;;;;4918148;29;20485;-78